createdAt,value
2019-03-09T00:02:08.341Z,21.70
2019-03-09T00:04:39.122Z,19.93
2019-03-09T00:07:09.821Z,18.33
2019-03-09T00:09:40.611Z,23.60
2019-03-09T00:12:12.974Z,29.43
2019-03-09T00:14:43.775Z,18.40
2019-03-09T00:17:14.661Z,13.60
2019-03-09T00:19:45.422Z,15.23
2019-03-09T00:22:16.342Z,15.57
2019-03-09T00:24:54.813Z,16.43
2019-03-09T00:27:47.563Z,15.10
2019-03-09T00:30:32.814Z,20.97
2019-03-09T00:33:03.558Z,21.73
2019-03-09T00:35:34.434Z,21.83
2019-03-09T00:38:05.651Z,26.20
2019-03-09T00:40:36.415Z,29.30
2019-03-09T00:43:07.594Z,27.73
2019-03-09T00:45:38.307Z,17.27
2019-03-09T00:48:09.085Z,17.33
2019-03-09T00:50:39.906Z,19.50
2019-03-09T00:53:10.630Z,17.80
2019-03-09T00:55:41.475Z,25.53
2019-03-09T00:58:12.490Z,16.80
2019-03-09T01:00:43.318Z,20.57
2019-03-09T01:03:15.042Z,33.83
2019-03-09T01:05:45.982Z,21.17
2019-03-09T01:08:17.646Z,24.23
2019-03-09T01:10:48.525Z,25.17
2019-03-09T01:13:19.218Z,19.37
2019-03-09T01:15:49.926Z,26.90
2019-03-09T01:18:20.619Z,35.70
2019-03-09T01:20:51.390Z,29.07
2019-03-09T01:23:22.066Z,29.07
2019-03-09T01:25:52.878Z,20.87
2019-03-09T01:28:23.663Z,23.43
2019-03-09T01:30:54.447Z,26.60
2019-03-09T01:33:25.192Z,27.57
2019-03-09T01:35:55.953Z,24.30
2019-03-09T01:38:26.747Z,23.43
2019-03-09T01:40:57.555Z,31.03
2019-03-09T01:43:28.339Z,30.47
2019-03-09T01:45:59.070Z,25.83
2019-03-09T01:48:29.991Z,16.97
2019-03-09T02:10:05.411Z,20.93
2019-03-09T02:12:36.188Z,22.10
2019-03-09T02:15:07.417Z,17.87
2019-03-09T02:17:38.269Z,22.83
2019-03-09T02:20:09.719Z,23.17
2019-03-09T02:22:40.526Z,22.73
2019-03-09T02:25:11.256Z,27.57
2019-03-09T02:27:42.072Z,29.33
2019-03-09T02:30:13.056Z,29.27
2019-03-09T02:32:44.006Z,31.47
2019-03-09T02:35:15.172Z,34.70
2019-03-09T02:37:46.020Z,36.10
2019-03-09T02:40:23.197Z,26.90
2019-03-09T02:42:55.215Z,31.67
2019-03-09T02:45:26.615Z,30.37
2019-03-09T02:47:57.497Z,35.50
2019-03-09T02:50:28.355Z,29.20
2019-03-09T02:52:59.123Z,33.47
2019-03-09T02:55:29.931Z,30.93
2019-03-09T02:58:00.737Z,30.07
2019-03-09T03:00:36.803Z,32.67
2019-03-09T03:03:07.637Z,29.90
2019-03-09T03:05:38.392Z,33.13
2019-03-09T03:08:09.068Z,31.00
2019-03-09T03:10:39.880Z,28.43
2019-03-09T03:13:10.671Z,32.30
2019-03-09T03:15:41.511Z,30.67
2019-03-09T03:18:12.219Z,22.10
2019-03-09T03:20:42.987Z,23.53
2019-03-09T03:23:13.686Z,30.23
2019-03-09T03:25:44.471Z,17.33
2019-03-09T03:28:15.256Z,16.80
2019-03-09T03:30:46.054Z,16.10
2019-03-09T03:33:16.934Z,16.87
2019-03-09T03:35:47.777Z,20.40
2019-03-09T03:38:18.547Z,15.63
2019-03-09T03:40:49.381Z,24.47
2019-03-09T03:43:20.129Z,24.90
2019-03-09T03:45:50.915Z,19.07
2019-03-09T03:48:21.593Z,20.93
2019-03-09T03:50:52.407Z,24.80
2019-03-09T03:53:23.096Z,15.37
2019-03-09T03:55:53.833Z,23.47
2019-03-09T03:58:24.596Z,16.57
2019-03-09T04:00:55.408Z,22.23
2019-03-09T04:03:26.246Z,16.97
2019-03-09T04:05:57.045Z,14.07
2019-03-09T04:08:27.809Z,19.23
2019-03-09T04:10:58.609Z,10.47
2019-03-09T04:13:29.308Z,10.17
2019-03-09T04:16:00.035Z,17.47
2019-03-09T04:18:30.766Z,13.73
2019-03-09T04:21:02.107Z,10.10
2019-03-09T04:23:32.919Z,21.67
2019-03-09T04:26:04.629Z,13.23
2019-03-09T04:28:35.338Z,12.27
2019-03-09T04:31:06.224Z,17.93
2019-03-09T04:33:36.995Z,9.60
2019-03-09T04:36:07.704Z,9.23
2019-03-09T04:38:38.421Z,12.57
2019-03-09T04:41:09.138Z,17.87
2019-03-09T04:43:40.839Z,14.03
2019-03-09T04:46:11.598Z,16.30
2019-03-09T04:48:42.263Z,9.93
2019-03-09T04:51:12.977Z,13.60
2019-03-09T04:53:43.691Z,12.17
2019-03-09T04:56:14.465Z,19.53
2019-03-09T04:58:45.177Z,21.33
2019-03-09T05:01:15.923Z,12.27
2019-03-09T05:03:55.283Z,9.77
2019-03-09T05:06:26.009Z,15.97
2019-03-09T05:09:23.002Z,14.60
2019-03-09T05:11:53.724Z,15.17
2019-03-09T05:14:25.791Z,9.50
2019-03-09T05:16:56.562Z,15.87
2019-03-09T05:19:27.296Z,19.57
2019-03-09T05:21:58.030Z,12.73
2019-03-09T05:24:28.708Z,19.77
2019-03-09T05:26:59.445Z,14.20
2019-03-09T05:29:30.190Z,17.57
2019-03-09T05:32:00.950Z,13.80
2019-03-09T05:34:31.685Z,8.50
2019-03-09T05:37:02.440Z,11.83
2019-03-09T05:39:33.156Z,10.30
2019-03-09T05:42:03.882Z,7.90
2019-03-09T05:44:34.570Z,19.70
2019-03-09T05:47:05.315Z,12.03
2019-03-09T05:49:36.058Z,8.07
2019-03-09T05:52:28.912Z,14.73
2019-03-09T05:55:04.071Z,10.67
2019-03-09T05:57:36.258Z,17.83
2019-03-09T06:00:07.198Z,15.60
2019-03-09T06:02:37.950Z,14.93
2019-03-09T06:05:46.074Z,19.93
2019-03-09T06:08:16.807Z,17.97
2019-03-09T06:10:47.502Z,14.87
2019-03-09T06:13:18.161Z,15.23
2019-03-09T06:15:48.907Z,12.90
2019-03-09T06:18:21.198Z,18.83
2019-03-09T06:20:51.930Z,15.07
2019-03-09T06:23:22.722Z,17.90
2019-03-09T06:25:53.416Z,16.73
2019-03-09T06:28:24.142Z,9.83
2019-03-09T06:30:54.796Z,12.67
2019-03-09T06:33:29.898Z,10.97
2019-03-09T06:36:34.055Z,18.03
2019-03-09T06:39:18.551Z,15.97
2019-03-09T06:42:39.152Z,12.10
2019-03-09T06:45:12.207Z,17.53
2019-03-09T06:47:42.917Z,14.13
2019-03-09T06:50:15.866Z,15.57
2019-03-09T06:52:46.670Z,15.80
2019-03-09T06:55:17.522Z,15.57
2019-03-09T06:57:48.169Z,15.97
2019-03-09T07:00:47.206Z,14.27
2019-03-09T07:03:17.947Z,13.23
2019-03-09T07:05:48.765Z,18.70
2019-03-09T07:08:19.616Z,15.77
2019-03-09T07:10:50.502Z,12.27
2019-03-09T07:13:21.295Z,15.90
2019-03-09T07:15:52.154Z,16.80
2019-03-09T07:18:29.186Z,26.03
2019-03-09T07:20:59.965Z,12.27
2019-03-09T07:23:30.731Z,20.77
2019-03-09T07:26:01.626Z,18.43
2019-03-09T07:28:32.445Z,18.57
2019-03-09T07:31:03.229Z,26.70
2019-03-09T07:33:33.983Z,18.63
2019-03-09T07:36:04.980Z,15.77
2019-03-09T07:38:36.762Z,22.53
2019-03-09T07:41:07.499Z,17.27
2019-03-09T07:43:38.332Z,17.03
2019-03-09T07:46:09.347Z,22.07
2019-03-09T07:48:40.927Z,20.37
2019-03-09T07:51:12.840Z,23.07
2019-03-09T07:53:43.597Z,15.77
2019-03-09T07:56:14.456Z,20.17
2019-03-09T07:58:45.190Z,21.80
2019-03-09T08:01:15.847Z,16.03
2019-03-09T08:03:48.024Z,18.53
2019-03-09T08:06:19.305Z,21.47
2019-03-09T08:08:50.050Z,15.33
2019-03-09T08:11:20.829Z,19.73
2019-03-09T08:13:51.700Z,17.77
2019-03-09T08:16:25.415Z,23.67
2019-03-09T08:18:56.185Z,18.30
2019-03-09T08:21:26.928Z,18.03
2019-03-09T08:23:57.723Z,13.70
2019-03-09T08:26:28.518Z,13.10
2019-03-09T08:28:59.634Z,24.13
2019-03-09T08:31:31.724Z,19.30
2019-03-09T08:34:02.460Z,18.83
2019-03-09T08:36:35.004Z,24.50
2019-03-09T08:39:07.150Z,21.70
2019-03-09T08:41:38.025Z,17.20
2019-03-09T08:44:09.859Z,23.77
2019-03-09T08:46:40.762Z,17.87
2019-03-09T08:49:11.614Z,25.70
2019-03-09T08:51:42.470Z,19.20
2019-03-09T08:54:13.253Z,16.67
2019-03-09T08:56:44.170Z,20.43
2019-03-09T08:59:16.170Z,20.23
2019-03-09T09:01:47.042Z,17.00
2019-03-09T09:04:17.917Z,26.17
2019-03-09T09:06:48.667Z,16.30
2019-03-09T09:09:19.417Z,20.77
2019-03-09T09:11:50.240Z,18.83
2019-03-09T09:14:21.802Z,17.10
2019-03-09T09:16:52.582Z,15.00
2019-03-09T09:19:23.225Z,25.50
2019-03-09T09:21:54.616Z,18.90
2019-03-09T09:24:25.324Z,23.20
2019-03-09T09:26:56.041Z,17.53
2019-03-09T09:29:26.866Z,22.30
2019-03-09T09:31:57.648Z,22.60
2019-03-09T09:34:28.386Z,22.03
2019-03-09T09:36:59.195Z,18.53
2019-03-09T09:39:30.211Z,17.33
2019-03-09T09:42:01.469Z,13.63
2019-03-09T09:44:32.166Z,24.03
2019-03-09T09:47:02.895Z,16.87
2019-03-09T09:49:33.576Z,19.00
2019-03-09T09:52:04.259Z,17.17
2019-03-09T09:54:34.995Z,15.00
2019-03-09T09:57:06.119Z,20.00
2019-03-09T09:59:36.867Z,19.53
2019-03-09T10:02:09.178Z,18.03
2019-03-09T10:04:39.925Z,24.07
2019-03-09T10:07:10.659Z,20.10
2019-03-09T10:09:41.402Z,18.77
2019-03-09T10:12:12.075Z,18.97
2019-03-09T10:14:42.893Z,20.47
2019-03-09T10:17:13.619Z,11.80
2019-03-09T10:19:44.474Z,17.93
2019-03-09T10:22:15.465Z,15.73
2019-03-09T10:24:46.184Z,20.97
2019-03-09T10:27:16.939Z,19.63
2019-03-09T10:29:47.737Z,17.43
2019-03-09T10:32:18.386Z,22.90
2019-03-09T10:34:49.074Z,20.57
2019-03-09T10:37:19.835Z,17.67
2019-03-09T10:39:50.631Z,27.77
2019-03-09T10:42:21.452Z,20.93
2019-03-09T11:30:41.674Z,11.60
2019-03-09T11:41:18.842Z,20.57
2019-03-09T11:44:06.011Z,25.43
2019-03-09T11:46:37.607Z,21.27
2019-03-09T11:49:08.435Z,23.87
2019-03-09T11:51:39.219Z,20.33
2019-03-09T11:54:11.172Z,24.53
2019-03-09T11:56:46.534Z,21.07
2019-03-09T11:59:17.307Z,26.93
2019-03-09T12:01:48.209Z,29.30
2019-03-09T12:04:18.978Z,27.00
2019-03-09T12:06:49.788Z,37.73
2019-03-09T12:09:20.525Z,29.47
2019-03-09T12:12:01.351Z,27.17
2019-03-09T12:14:33.227Z,25.90
2019-03-09T12:17:04.168Z,38.97
2019-03-09T12:19:36.614Z,31.40
2019-03-09T12:22:07.442Z,33.83
2019-03-09T12:24:38.387Z,34.03
2019-03-09T12:27:10.710Z,42.67
2019-03-09T12:29:41.529Z,27.70
2019-03-09T12:32:12.330Z,39.87
2019-03-09T12:34:44.708Z,32.40
2019-03-09T12:37:15.530Z,36.73
2019-03-09T12:39:46.280Z,37.00
2019-03-09T12:42:16.993Z,46.87
2019-03-09T12:44:47.774Z,38.73
2019-03-09T12:47:19.136Z,27.17
2019-03-09T12:49:51.325Z,31.43
2019-03-09T12:52:23.436Z,29.40
2019-03-09T12:54:54.289Z,26.37
2019-03-09T12:57:25.566Z,20.87
2019-03-09T12:59:56.306Z,38.23
2019-03-09T13:02:27.140Z,38.00
2019-03-09T13:04:57.839Z,30.57
2019-03-09T13:07:29.110Z,35.37
2019-03-09T13:09:59.842Z,26.10
2019-03-09T13:12:30.594Z,39.00
2019-03-09T13:15:01.538Z,29.17
2019-03-09T13:17:32.415Z,29.63
2019-03-09T13:20:03.299Z,21.33
2019-03-09T13:22:34.133Z,33.87
2019-03-09T13:25:05.435Z,38.33
2019-03-09T13:27:37.907Z,31.30
2019-03-09T13:30:11.942Z,40.77
2019-03-09T13:32:42.719Z,31.30
2019-03-09T13:35:15.046Z,34.70
2019-03-09T13:37:46.027Z,27.77
2019-03-09T13:40:16.918Z,36.07
2019-03-09T13:42:47.634Z,43.40
2019-03-09T13:45:18.514Z,36.63
2019-03-09T13:47:49.289Z,34.43
2019-03-09T13:50:20.057Z,43.50
2019-03-09T13:52:50.821Z,45.00
2019-03-09T13:55:21.792Z,42.17
2019-03-09T13:57:52.670Z,19.60
2019-03-09T14:00:23.406Z,22.90
2019-03-09T14:02:54.155Z,24.63
2019-03-09T14:05:26.474Z,17.67
2019-03-09T14:08:00.324Z,11.10
2019-03-09T14:10:31.021Z,9.30
2019-03-09T14:13:01.782Z,4.57
2019-03-09T14:15:32.588Z,2.97
2019-03-09T14:18:03.305Z,5.20
2019-03-09T14:20:34.151Z,7.03
2019-03-09T14:23:38.124Z,3.80
2019-03-09T14:26:08.945Z,1.17
2019-03-09T14:28:39.627Z,4.70
2019-03-09T14:31:10.604Z,9.73
2019-03-09T14:33:43.770Z,8.13
2019-03-09T14:36:14.513Z,21.70
2019-03-09T14:38:45.265Z,17.77
2019-03-09T14:41:16.061Z,23.57
2019-03-09T14:43:47.911Z,8.53
2019-03-09T14:47:45.304Z,17.90
2019-03-09T14:58:22.089Z,5.00
2019-03-09T15:00:53.008Z,5.17
2019-03-09T15:03:23.799Z,8.17
2019-03-09T15:05:54.590Z,7.73
2019-03-09T15:08:25.414Z,10.17
2019-03-09T15:10:56.361Z,9.27
2019-03-09T15:13:29.409Z,10.80
2019-03-09T15:16:00.184Z,8.30
2019-03-09T15:18:31.035Z,9.47
2019-03-09T15:21:02.063Z,4.20
2019-03-09T15:23:33.156Z,10.17
2019-03-09T15:26:04.002Z,11.87
2019-03-09T15:28:34.809Z,6.77
2019-03-09T15:31:07.140Z,8.80
2019-03-09T15:33:37.906Z,17.27
2019-03-09T15:36:08.627Z,20.83
2019-03-09T15:38:39.404Z,17.17
2019-03-09T15:41:10.257Z,11.90
2019-03-09T15:43:41.070Z,11.23
2019-03-09T15:46:13.084Z,15.27
2019-03-09T15:48:43.976Z,15.27
2019-03-09T15:51:14.866Z,13.90
2019-03-09T15:53:45.824Z,17.40
2019-03-09T15:56:16.865Z,13.53
2019-03-09T15:59:23.186Z,12.70
2019-03-09T16:01:50.584Z,24.37
2019-03-09T16:04:22.732Z,13.03
2019-03-09T16:06:55.468Z,22.60
2019-03-09T16:09:26.337Z,9.47
2019-03-09T16:11:57.275Z,13.57
2019-03-09T16:14:31.320Z,13.93
2019-03-09T16:17:11.232Z,13.67
2019-03-09T16:19:42.243Z,8.63
2019-03-09T16:22:13.320Z,15.67
2019-03-09T16:24:44.299Z,10.90
2019-03-09T16:27:17.166Z,13.77
2019-03-09T16:29:52.780Z,8.90
2019-03-09T16:32:24.166Z,11.27
2019-03-09T16:34:55.327Z,19.20
2019-03-09T16:37:26.455Z,12.03
2019-03-09T16:39:57.201Z,14.70
2019-03-09T16:42:27.907Z,12.10
2019-03-09T16:45:05.683Z,9.47
2019-03-09T16:47:37.032Z,11.70
2019-03-09T16:50:08.808Z,20.33
2019-03-09T16:52:39.668Z,13.43
2019-03-09T16:55:11.111Z,13.87
2019-03-09T16:57:41.956Z,16.63
2019-03-09T17:00:15.507Z,8.27
2019-03-09T17:02:47.557Z,10.30
2019-03-09T17:05:18.209Z,10.67
2019-03-09T17:07:48.991Z,9.47
2019-03-09T17:10:19.870Z,11.67
2019-03-09T17:12:50.626Z,8.00
2019-03-09T17:15:21.426Z,19.83
2019-03-09T17:17:52.930Z,13.17
2019-03-09T17:20:23.705Z,14.47
2019-03-09T17:22:56.037Z,11.57
2019-03-09T17:25:26.686Z,12.80
2019-03-09T17:27:57.993Z,13.47
2019-03-09T17:30:30.004Z,11.63
2019-03-09T17:33:00.835Z,12.87
2019-03-09T17:35:34.342Z,17.33
2019-03-09T17:38:05.056Z,20.70
2019-03-09T17:40:36.055Z,20.57
2019-03-09T17:43:06.861Z,13.23
2019-03-09T17:45:37.653Z,9.80
2019-03-09T17:48:08.330Z,17.67
2019-03-09T17:50:39.178Z,18.10
2019-03-09T17:53:09.850Z,19.40
2019-03-09T17:55:40.535Z,11.33
2019-03-09T17:58:11.203Z,22.47
2019-03-09T18:00:45.133Z,15.07
2019-03-09T18:03:15.999Z,19.53
2019-03-09T18:05:46.977Z,14.90
2019-03-09T18:08:17.785Z,17.80
2019-03-09T18:10:51.624Z,19.97
2019-03-09T18:13:22.712Z,17.40
2019-03-09T18:15:53.441Z,21.97
2019-03-09T18:18:24.339Z,17.60
2019-03-09T18:20:56.262Z,18.03
2019-03-09T18:23:26.989Z,24.13
2019-03-09T18:25:57.763Z,24.60
2019-03-09T18:28:31.335Z,30.53
2019-03-09T18:31:01.489Z,17.33
2019-03-09T18:33:32.545Z,15.03
2019-03-09T18:36:05.209Z,24.40
2019-03-09T18:38:37.607Z,21.30
2019-03-09T18:41:08.463Z,18.97
2019-03-09T18:43:39.226Z,18.90
2019-03-09T18:46:21.935Z,24.20
2019-03-09T18:48:52.715Z,21.40
2019-03-09T18:51:23.946Z,26.00
2019-03-09T18:53:54.897Z,26.73
2019-03-09T18:56:27.251Z,22.30
2019-03-09T18:58:58.275Z,21.27
2019-03-09T19:01:29.096Z,26.20
2019-03-09T19:04:01.430Z,31.83
2019-03-09T19:06:34.536Z,21.63
2019-03-09T19:09:08.966Z,29.93
2019-03-09T19:11:40.343Z,20.43
2019-03-09T19:14:11.321Z,23.40
2019-03-09T19:16:42.310Z,20.90
2019-03-09T19:19:14.254Z,17.50
2019-03-09T19:21:52.568Z,21.27
2019-03-09T19:24:23.466Z,20.70
2019-03-09T19:26:54.284Z,23.90
2019-03-09T19:29:27.525Z,24.60
2019-03-09T19:31:58.366Z,19.07
2019-03-09T19:34:29.198Z,21.80
2019-03-09T19:37:03.545Z,18.77
2019-03-09T19:39:34.101Z,18.57
2019-03-09T19:42:04.981Z,23.17
2019-03-09T19:44:36.063Z,16.93
2019-03-09T19:47:09.422Z,18.27
2019-03-09T19:49:41.839Z,23.77
2019-03-09T19:52:14.339Z,22.10
2019-03-09T19:54:48.118Z,11.33
2019-03-09T19:57:21.428Z,15.70
2019-03-09T19:59:53.887Z,15.27
2019-03-09T20:02:34.815Z,17.50
2019-03-09T20:05:08.169Z,16.70
2019-03-09T20:07:39.033Z,12.90
2019-03-09T20:10:11.138Z,16.70
2019-03-09T20:12:41.981Z,13.90
2019-03-09T20:15:13.997Z,17.53
2019-03-09T20:17:46.351Z,14.87
2019-03-09T20:20:17.180Z,12.13
2019-03-09T20:22:48.138Z,15.07
2019-03-09T20:25:19.088Z,20.30
2019-03-09T20:27:53.751Z,22.03
2019-03-09T20:30:36.117Z,24.70
2019-03-09T20:32:59.365Z,22.50
2019-03-09T20:35:37.767Z,14.87
2019-03-09T20:38:30.626Z,15.03
2019-03-09T20:41:03.128Z,13.10
2019-03-09T20:43:33.982Z,18.13
2019-03-09T20:46:04.783Z,19.53
2019-03-09T20:48:35.587Z,12.00
2019-03-09T20:51:07.924Z,17.47
2019-03-09T20:53:38.857Z,17.93
2019-03-09T20:56:09.621Z,13.47
2019-03-09T20:58:40.367Z,12.47
2019-03-09T21:01:11.182Z,16.23
2019-03-09T21:03:42.136Z,18.87
2019-03-09T21:06:13.041Z,18.27
2019-03-09T21:08:45.071Z,21.53
2019-03-09T21:11:16.122Z,15.93
2019-03-09T21:13:46.906Z,18.53
2019-03-09T21:16:17.875Z,18.40
2019-03-09T21:18:48.735Z,16.50
2019-03-09T21:21:19.555Z,9.40
2019-03-09T21:23:50.359Z,25.43
2019-03-09T21:26:21.407Z,25.87
2019-03-09T21:28:52.243Z,18.57
2019-03-09T21:31:34.232Z,14.50
2019-03-09T21:34:06.112Z,16.67
2019-03-09T21:36:36.955Z,22.73
2019-03-09T21:39:08.384Z,19.23
2019-03-09T21:41:41.072Z,22.47
2019-03-09T21:44:11.883Z,21.27
2019-03-09T21:46:42.699Z,19.57
2019-03-09T21:49:13.382Z,19.93
2019-03-09T21:51:44.285Z,18.57
2019-03-09T21:54:15.134Z,15.90
2019-03-09T21:56:45.974Z,17.00
2019-03-09T21:59:16.782Z,26.70
2019-03-09T22:01:47.480Z,26.23
2019-03-09T22:04:18.260Z,19.10
2019-03-09T22:06:48.994Z,19.97
2019-03-09T22:09:19.764Z,22.50
2019-03-09T22:11:50.560Z,15.23
2019-03-09T22:14:21.300Z,14.33
2019-03-09T22:16:56.600Z,19.57
2019-03-09T22:19:25.269Z,12.40
2019-03-09T22:21:56.092Z,19.23
2019-03-09T22:24:27.134Z,20.97
2019-03-09T22:26:57.863Z,18.60
2019-03-09T22:29:28.692Z,21.73
2019-03-09T22:31:59.390Z,15.50
2019-03-09T22:34:30.191Z,18.90
2019-03-09T22:37:00.960Z,19.43
2019-03-09T22:39:31.755Z,23.23
2019-03-09T22:42:02.466Z,26.60
2019-03-09T22:44:34.844Z,26.03
2019-03-09T22:47:11.582Z,20.33
2019-03-09T22:49:38.516Z,28.90
2019-03-09T22:52:10.164Z,28.80
2019-03-09T22:54:40.834Z,17.00
2019-03-09T22:57:11.537Z,24.20
2019-03-09T22:59:42.363Z,19.30
2019-03-09T23:02:13.100Z,17.67
2019-03-09T23:04:43.874Z,22.50
2019-03-09T23:07:14.627Z,27.57
2019-03-09T23:09:46.506Z,22.47
2019-03-09T23:12:17.331Z,18.47
2019-03-09T23:14:48.570Z,22.27
2019-03-09T23:17:19.373Z,22.30
2019-03-09T23:19:50.231Z,29.47
2019-03-09T23:22:20.990Z,27.47
2019-03-09T23:24:51.779Z,22.50
2019-03-09T23:27:24.130Z,24.53
2019-03-09T23:29:54.917Z,22.83
2019-03-09T23:32:25.675Z,19.40
2019-03-09T23:34:56.442Z,24.23
2019-03-09T23:37:27.256Z,21.90
2019-03-09T23:39:57.991Z,32.23
2019-03-09T23:42:28.713Z,30.47
2019-03-09T23:44:59.463Z,21.30
2019-03-09T23:47:30.252Z,17.67
2019-03-09T23:50:01.038Z,27.17
2019-03-09T23:52:31.688Z,22.87
2019-03-09T23:55:03.534Z,24.63
2019-03-09T23:57:34.371Z,19.77
